sensor_id;sensor_type;location;lat;lon;timestamp;pressure;altitude;pressure_sealevel;temperature;humidity
55590;BME280;41452;42.780;23.116;2023-04-03T00:00:19;93728.56;;;4.32;91.30
55590;BME280;41452;42.780;23.116;2023-04-03T00:02:44;93737.13;;;4.39;91.39
55590;BME280;41452;42.780;23.116;2023-04-03T00:05:10;93713.00;;;4.25;91.06
55590;BME280;41452;42.780;23.116;2023-04-03T00:07:35;93744.94;;;4.39;91.14
55590;BME280;41452;42.780;23.116;2023-04-03T00:10:01;93731.75;;;4.41;90.67
55590;BME280;41452;42.780;23.116;2023-04-03T00:12:26;93747.72;;;4.44;90.22
55590;BME280;41452;42.780;23.116;2023-04-03T00:14:51;93742.94;;;4.41;90.23
55590;BME280;41452;42.780;23.116;2023-04-03T00:17:17;93687.91;;;3.92;91.09
55590;BME280;41452;42.780;23.116;2023-04-03T00:19:42;93724.19;;;4.26;90.49
55590;BME280;41452;42.780;23.116;2023-04-03T00:22:07;93747.00;;;4.24;91.23
55590;BME280;41452;42.780;23.116;2023-04-03T00:24:33;93738.59;;;4.22;90.57
55590;BME280;41452;42.780;23.116;2023-04-03T00:26:58;93706.06;;;4.06;90.36
55590;BME280;41452;42.780;23.116;2023-04-03T00:29:23;93749.59;;;4.24;90.31
55590;BME280;41452;42.780;23.116;2023-04-03T00:31:49;93741.00;;;4.23;90.15
55590;BME280;41452;42.780;23.116;2023-04-03T00:34:15;93721.84;;;4.04;90.85
55590;BME280;41452;42.780;23.116;2023-04-03T00:36:40;93736.84;;;4.09;90.58
55590;BME280;41452;42.780;23.116;2023-04-03T00:39:05;93753.03;;;4.11;90.32
55590;BME280;41452;42.780;23.116;2023-04-03T00:41:31;93741.88;;;3.97;90.77
55590;BME280;41452;42.780;23.116;2023-04-03T00:43:58;93757.84;;;3.94;91.24
55590;BME280;41452;42.780;23.116;2023-04-03T00:46:23;93755.31;;;3.80;92.02
55590;BME280;41452;42.780;23.116;2023-04-03T00:48:49;93746.88;;;3.85;91.66
55590;BME280;41452;42.780;23.116;2023-04-03T00:51:24;93749.88;;;3.95;91.70
55590;BME280;41452;42.780;23.116;2023-04-03T00:54:00;93749.88;;;3.89;92.06
55590;BME280;41452;42.780;23.116;2023-04-03T00:56:27;93756.69;;;3.76;92.56
55590;BME280;41452;42.780;23.116;2023-04-03T00:58:59;93747.69;;;3.86;92.49
55590;BME280;41452;42.780;23.116;2023-04-03T01:01:28;93755.09;;;3.82;93.19
55590;BME280;41452;42.780;23.116;2023-04-03T01:03:53;93755.50;;;3.79;93.74
55590;BME280;41452;42.780;23.116;2023-04-03T01:06:23;93721.16;;;3.57;94.37
55590;BME280;41452;42.780;23.116;2023-04-03T01:08:50;93756.28;;;3.79;95.21
55590;BME280;41452;42.780;23.116;2023-04-03T01:11:16;93758.28;;;3.77;95.25
55590;BME280;41452;42.780;23.116;2023-04-03T01:13:41;93724.38;;;3.59;96.65
55590;BME280;41452;42.780;23.116;2023-04-03T01:16:07;93752.09;;;3.78;96.34
55590;BME280;41452;42.780;23.116;2023-04-03T01:18:36;93714.38;;;3.56;97.06
55590;BME280;41452;42.780;23.116;2023-04-03T01:24:21;93745.88;;;3.93;99.08
55590;BME280;41452;42.780;23.116;2023-04-03T01:26:49;93751.47;;;3.96;99.89
55590;BME280;41452;42.780;23.116;2023-04-03T01:29:16;93717.31;;;3.79;99.65
55590;BME280;41452;42.780;23.116;2023-04-03T01:31:57;93696.78;;;3.65;99.61
55590;BME280;41452;42.780;23.116;2023-04-03T01:34:23;93741.88;;;3.97;99.34
55590;BME280;41452;42.780;23.116;2023-04-03T01:36:49;93734.28;;;3.95;99.37
55590;BME280;41452;42.780;23.116;2023-04-03T01:39:15;93751.81;;;4.13;98.59
55590;BME280;41452;42.780;23.116;2023-04-03T01:41:41;93753.03;;;4.17;98.45
55590;BME280;41452;42.780;23.116;2023-04-03T01:44:06;93746.41;;;4.22;97.52
55590;BME280;41452;42.780;23.116;2023-04-03T01:46:31;93753.34;;;4.28;97.09
55590;BME280;41452;42.780;23.116;2023-04-03T01:48:57;93752.56;;;4.34;96.69
55590;BME280;41452;42.780;23.116;2023-04-03T01:51:23;93760.94;;;4.36;96.73
55590;BME280;41452;42.780;23.116;2023-04-03T01:53:48;93752.56;;;4.34;96.78
55590;BME280;41452;42.780;23.116;2023-04-03T01:56:13;93743.16;;;4.33;96.87
55590;BME280;41452;42.780;23.116;2023-04-03T01:58:39;93744.94;;;4.39;96.85
55590;BME280;41452;42.780;23.116;2023-04-03T02:01:05;93749.69;;;4.42;96.45
55590;BME280;41452;42.780;23.116;2023-04-03T02:03:31;93750.13;;;4.39;96.33
55590;BME280;41452;42.780;23.116;2023-04-03T02:05:56;93745.72;;;4.46;96.12
55590;BME280;41452;42.780;23.116;2023-04-03T02:08:22;93722.31;;;4.40;95.31
55590;BME280;41452;42.780;23.116;2023-04-03T02:10:48;93740.50;;;4.46;94.68
55590;BME280;41452;42.780;23.116;2023-04-03T02:13:15;93740.13;;;4.43;95.18
55590;BME280;41452;42.780;23.116;2023-04-03T02:15:40;93720.59;;;4.27;95.11
55590;BME280;41452;42.780;23.116;2023-04-03T02:18:06;93723.41;;;4.25;95.92
55590;BME280;41452;42.780;23.116;2023-04-03T02:20:32;93733.16;;;4.30;96.34
55590;BME280;41452;42.780;23.116;2023-04-03T02:22:58;93729.34;;;4.32;96.13
55590;BME280;41452;42.780;23.116;2023-04-03T02:25:23;93724.16;;;4.32;95.95
55590;BME280;41452;42.780;23.116;2023-04-03T02:27:49;93719.94;;;4.31;96.01
55590;BME280;41452;42.780;23.116;2023-04-03T02:30:14;93717.94;;;4.33;95.69
55590;BME280;41452;42.780;23.116;2023-04-03T02:32:41;93656.72;;;3.99;95.25
55590;BME280;41452;42.780;23.116;2023-04-03T02:35:07;93713.97;;;4.31;95.15
55590;BME280;41452;42.780;23.116;2023-04-03T02:37:33;93711.38;;;4.31;94.87
55590;BME280;41452;42.780;23.116;2023-04-03T02:39:58;93708.03;;;4.17;94.95
55590;BME280;41452;42.780;23.116;2023-04-03T02:42:24;93720.41;;;4.22;95.29
55590;BME280;41452;42.780;23.116;2023-04-03T02:44:49;93715.63;;;4.18;95.14
55590;BME280;41452;42.780;23.116;2023-04-03T02:47:15;93724.19;;;4.19;95.32
55590;BME280;41452;42.780;23.116;2023-04-03T02:49:41;93700.47;;;4.09;95.31
55590;BME280;41452;42.780;23.116;2023-04-03T02:52:08;93720.22;;;4.16;95.12
55590;BME280;41452;42.780;23.116;2023-04-03T02:54:34;93709.03;;;4.16;94.50
55590;BME280;41452;42.780;23.116;2023-04-03T02:57:00;93704.66;;;4.10;94.78
55590;BME280;41452;42.780;23.116;2023-04-03T02:59:25;93696.31;;;3.94;94.70
55590;BME280;41452;42.780;23.116;2023-04-03T03:01:51;93703.69;;;3.97;94.78
55590;BME280;41452;42.780;23.116;2023-04-03T03:04:16;93707.72;;;3.87;95.21
55590;BME280;41452;42.780;23.116;2023-04-03T03:06:42;93707.97;;;3.78;95.92
55590;BME280;41452;42.780;23.116;2023-04-03T03:09:07;93705.75;;;3.75;96.38
55590;BME280;41452;42.780;23.116;2023-04-03T03:11:32;93694.16;;;3.71;97.24
55590;BME280;41452;42.780;23.116;2023-04-03T03:13:58;93705.75;;;3.69;98.38
55590;BME280;41452;42.780;23.116;2023-04-03T03:16:23;93700.56;;;3.69;98.95
55590;BME280;41452;42.780;23.116;2023-04-03T03:18:49;93702.38;;;3.68;98.96
55590;BME280;41452;42.780;23.116;2023-04-03T03:21:14;93699.78;;;3.68;98.94
55590;BME280;41452;42.780;23.116;2023-04-03T03:23:39;93691.16;;;3.74;99.01
55590;BME280;41452;42.780;23.116;2023-04-03T03:26:08;93695.97;;;3.77;98.69
55590;BME280;41452;42.780;23.116;2023-04-03T03:28:34;93693.94;;;3.79;98.15
55590;BME280;41452;42.780;23.116;2023-04-03T03:31:00;93671.22;;;3.61;98.05
55590;BME280;41452;42.780;23.116;2023-04-03T03:33:26;93679.41;;;3.65;97.78
55590;BME280;41452;42.780;23.116;2023-04-03T03:35:53;93702.16;;;3.76;97.84
55590;BME280;41452;42.780;23.116;2023-04-03T03:38:18;93688.97;;;3.71;97.76
55590;BME280;41452;42.780;23.116;2023-04-03T03:40:44;93704.34;;;3.73;97.79
55590;BME280;41452;42.780;23.116;2023-04-03T03:43:09;93695.38;;;3.62;96.96
55590;BME280;41452;42.780;23.116;2023-04-03T03:45:35;93713.94;;;3.72;97.17
55590;BME280;41452;42.780;23.116;2023-04-03T03:48:01;93711.16;;;3.74;96.82
55590;BME280;41452;42.780;23.116;2023-04-03T03:50:27;93705.63;;;3.43;97.12
55590;BME280;41452;42.780;23.116;2023-04-03T03:52:52;93711.41;;;3.46;97.42
55590;BME280;41452;42.780;23.116;2023-04-03T03:55:17;93712.00;;;3.48;97.08
55590;BME280;41452;42.780;23.116;2023-04-03T03:57:43;93691.66;;;3.31;96.74
55590;BME280;41452;42.780;23.116;2023-04-03T04:00:09;93721.16;;;3.57;97.02
55590;BME280;41452;42.780;23.116;2023-04-03T04:02:34;93725.56;;;3.50;96.48
55590;BME280;41452;42.780;23.116;2023-04-03T04:05:00;93725.19;;;3.39;97.59
55590;BME280;41452;42.780;23.116;2023-04-03T04:07:25;93709.22;;;3.09;98.62
55590;BME280;41452;42.780;23.116;2023-04-03T04:09:53;93721.59;;;3.20;99.09
55590;BME280;41452;42.780;23.116;2023-04-03T04:12:18;93698.84;;;3.16;98.18
55590;BME280;41452;42.780;23.116;2023-04-03T04:14:45;93726.56;;;3.35;97.48
55590;BME280;41452;42.780;23.116;2023-04-03T04:17:12;93689.25;;;3.10;96.80
55590;BME280;41452;42.780;23.116;2023-04-03T04:19:38;93722.19;;;3.29;96.33
55590;BME280;41452;42.780;23.116;2023-04-03T04:22:03;93729.38;;;3.27;96.26
55590;BME280;41452;42.780;23.116;2023-04-03T04:24:29;93714.00;;;3.05;95.90
55590;BME280;41452;42.780;23.116;2023-04-03T04:26:54;93741.75;;;3.05;96.99
55590;BME280;41452;42.780;23.116;2023-04-03T04:29:20;93747.53;;;3.14;96.68
55590;BME280;41452;42.780;23.116;2023-04-03T04:31:46;93750.13;;;3.00;96.63
55590;BME280;41452;42.780;23.116;2023-04-03T04:34:11;93754.53;;;3.13;96.49
55590;BME280;41452;42.780;23.116;2023-04-03T04:36:38;93753.53;;;3.21;96.23
55590;BME280;41452;42.780;23.116;2023-04-03T04:39:04;93748.72;;;3.24;95.59
55590;BME280;41452;42.780;23.116;2023-04-03T04:41:30;93742.53;;;2.92;97.71
55590;BME280;41452;42.780;23.116;2023-04-03T04:43:56;93757.91;;;3.14;97.22
55590;BME280;41452;42.780;23.116;2023-04-03T04:46:21;93715.19;;;2.96;96.41
55590;BME280;41452;42.780;23.116;2023-04-03T04:48:47;93759.50;;;3.28;95.84
55590;BME280;41452;42.780;23.116;2023-04-03T04:51:13;93751.94;;;3.20;96.21
55590;BME280;41452;42.780;23.116;2023-04-03T04:53:39;93721.38;;;3.09;96.93
55590;BME280;41452;42.780;23.116;2023-04-03T04:56:06;93763.09;;;3.34;96.75
55590;BME280;41452;42.780;23.116;2023-04-03T04:58:31;93768.09;;;3.35;96.44
55590;BME280;41452;42.780;23.116;2023-04-03T05:01:01;93781.88;;;3.29;97.55
55590;BME280;41452;42.780;23.116;2023-04-03T05:03:27;93761.50;;;3.19;97.58
55590;BME280;41452;42.780;23.116;2023-04-03T05:05:53;93781.06;;;3.35;97.56
55590;BME280;41452;42.780;23.116;2023-04-03T05:08:18;93788.66;;;3.17;99.03
55590;BME280;41452;42.780;23.116;2023-04-03T05:10:47;93765.09;;;3.12;99.19
55590;BME280;41452;42.780;23.116;2023-04-03T05:13:13;93785.88;;;3.38;99.49
55590;BME280;41452;42.780;23.116;2023-04-03T05:15:38;93779.88;;;3.45;98.96
55590;BME280;41452;42.780;23.116;2023-04-03T05:18:04;93775.50;;;3.45;99.33
55590;BME280;41452;42.780;23.116;2023-04-03T05:20:30;93783.06;;;3.60;98.90
55590;BME280;41452;42.780;23.116;2023-04-03T05:22:56;93791.66;;;3.67;98.52
55590;BME280;41452;42.780;23.116;2023-04-03T05:25:21;93796.66;;;3.75;99.32
55590;BME280;41452;42.780;23.116;2023-04-03T05:27:46;93790.25;;;3.78;99.39
55590;BME280;41452;42.780;23.116;2023-04-03T05:30:12;93781.66;;;3.64;100.00
55590;BME280;41452;42.780;23.116;2023-04-03T05:32:38;93794.66;;;3.77;100.00
55590;BME280;41452;42.780;23.116;2023-04-03T05:35:04;93797.84;;;3.86;100.00
55590;BME280;41452;42.780;23.116;2023-04-03T05:37:30;93792.44;;;3.88;100.00
55590;BME280;41452;42.780;23.116;2023-04-03T05:39:56;93786.25;;;3.89;100.00
55590;BME280;41452;42.780;23.116;2023-04-03T05:42:21;93783.03;;;4.00;100.00
55590;BME280;41452;42.780;23.116;2023-04-03T05:44:46;93784.81;;;4.13;100.00
55590;BME280;41452;42.780;23.116;2023-04-03T05:47:12;93785.38;;;4.22;100.00
55590;BME280;41452;42.780;23.116;2023-04-03T05:49:38;93756.81;;;4.08;100.00
55590;BME280;41452;42.780;23.116;2023-04-03T05:52:09;93784.13;;;4.37;100.00
55590;BME280;41452;42.780;23.116;2023-04-03T05:54:42;93775.31;;;4.45;100.00
55590;BME280;41452;42.780;23.116;2023-04-03T05:57:08;93771.47;;;4.54;100.00
55590;BME280;41452;42.780;23.116;2023-04-03T05:59:33;93772.03;;;4.63;100.00
55590;BME280;41452;42.780;23.116;2023-04-03T06:01:58;93770.81;;;4.66;100.00
55590;BME280;41452;42.780;23.116;2023-04-03T06:04:24;93775.22;;;4.65;100.00
55590;BME280;41452;42.780;23.116;2023-04-03T06:06:52;93774.38;;;4.78;100.00
55590;BME280;41452;42.780;23.116;2023-04-03T06:09:20;93769.56;;;4.75;100.00
55590;BME280;41452;42.780;23.116;2023-04-03T06:11:46;93727.69;;;4.51;100.00
55590;BME280;41452;42.780;23.116;2023-04-03T06:14:11;93742.16;;;4.72;100.00
55590;BME280;41452;42.780;23.116;2023-04-03T06:16:37;93759.69;;;4.90;100.00
55590;BME280;41452;42.780;23.116;2023-04-03T06:19:03;93748.47;;;4.90;100.00
55590;BME280;41452;42.780;23.116;2023-04-03T06:21:29;93746.25;;;4.93;100.00
55590;BME280;41452;42.780;23.116;2023-04-03T06:23:55;93730.53;;;4.82;100.00
55590;BME280;41452;42.780;23.116;2023-04-03T06:26:20;93753.06;;;4.94;100.00
55590;BME280;41452;42.780;23.116;2023-04-03T06:28:46;93707.22;;;4.62;99.30
55590;BME280;41452;42.780;23.116;2023-04-03T06:31:11;93749.72;;;4.81;100.00
55590;BME280;41452;42.780;23.116;2023-04-03T06:33:36;93757.50;;;4.87;100.00
55590;BME280;41452;42.780;23.116;2023-04-03T06:36:04;93755.06;;;4.92;100.00
55590;BME280;41452;42.780;23.116;2023-04-03T06:38:31;93763.38;;;5.08;100.00
55590;BME280;41452;42.780;23.116;2023-04-03T06:40:56;93740.56;;;5.10;100.00
55590;BME280;41452;42.780;23.116;2023-04-03T06:43:22;93768.63;;;5.33;100.00
55590;BME280;41452;42.780;23.116;2023-04-03T06:45:47;93753.97;;;5.39;100.00
55590;BME280;41452;42.780;23.116;2023-04-03T06:48:13;93745.44;;;5.50;100.00
55590;BME280;41452;42.780;23.116;2023-04-03T06:50:38;93754.47;;;5.72;100.00
55590;BME280;41452;42.780;23.116;2023-04-03T06:53:04;93761.00;;;5.82;100.00
55590;BME280;41452;42.780;23.116;2023-04-03T06:55:29;93757.16;;;5.84;100.00
55590;BME280;41452;42.780;23.116;2023-04-03T06:57:55;93741.69;;;5.89;100.00
55590;BME280;41452;42.780;23.116;2023-04-03T07:00:21;93734.78;;;6.02;100.00
55590;BME280;41452;42.780;23.116;2023-04-03T07:02:46;93729.06;;;6.12;100.00
55590;BME280;41452;42.780;23.116;2023-04-03T07:05:12;93719.50;;;6.05;100.00
55590;BME280;41452;42.780;23.116;2023-04-03T07:07:38;93751.06;;;6.34;100.00
55590;BME280;41452;42.780;23.116;2023-04-03T07:10:07;93763.19;;;6.47;100.00
55590;BME280;41452;42.780;23.116;2023-04-03T07:12:32;93752.78;;;6.59;100.00
55590;BME280;41452;42.780;23.116;2023-04-03T07:14:58;93750.66;;;6.68;100.00
55590;BME280;41452;42.780;23.116;2023-04-03T07:17:23;93754.94;;;6.80;99.48
55590;BME280;41452;42.780;23.116;2023-04-03T07:19:49;93749.63;;;6.87;100.00
55590;BME280;41452;42.780;23.116;2023-04-03T07:22:14;93747.94;;;6.93;100.00
55590;BME280;41452;42.780;23.116;2023-04-03T07:24:39;93741.41;;;7.02;100.00
55590;BME280;41452;42.780;23.116;2023-04-03T07:27:05;93735.50;;;7.07;100.00
55590;BME280;41452;42.780;23.116;2023-04-03T07:29:31;93740.06;;;7.11;100.00
55590;BME280;41452;42.780;23.116;2023-04-03T07:31:56;93734.63;;;7.24;100.00
55590;BME280;41452;42.780;23.116;2023-04-03T07:34:22;93700.41;;;7.02;100.00
55590;BME280;41452;42.780;23.116;2023-04-03T07:36:48;93746.47;;;7.39;99.48
55590;BME280;41452;42.780;23.116;2023-04-03T07:39:13;93733.53;;;7.44;100.00
55590;BME280;41452;42.780;23.116;2023-04-03T07:41:38;93734.56;;;7.43;99.66
55590;BME280;41452;42.780;23.116;2023-04-03T07:44:04;93733.31;;;7.57;98.71
55590;BME280;41452;42.780;23.116;2023-04-03T07:46:30;93734.78;;;7.65;99.04
55590;BME280;41452;42.780;23.116;2023-04-03T07:48:56;93731.28;;;7.83;97.20
55590;BME280;41452;42.780;23.116;2023-04-03T07:51:21;93728.78;;;7.76;97.06
55590;BME280;41452;42.780;23.116;2023-04-03T07:53:47;93726.53;;;7.80;96.08
55590;BME280;41452;42.780;23.116;2023-04-03T07:56:12;93717.97;;;7.61;98.37
55590;BME280;41452;42.780;23.116;2023-04-03T07:58:37;93710.84;;;7.80;97.97
55590;BME280;41452;42.780;23.116;2023-04-03T08:01:03;93667.28;;;7.62;98.17
55590;BME280;41452;42.780;23.116;2023-04-03T08:03:29;93701.34;;;8.03;96.00
55590;BME280;41452;42.780;23.116;2023-04-03T08:05:54;93697.38;;;8.12;96.48
55590;BME280;41452;42.780;23.116;2023-04-03T08:08:23;93695.78;;;8.11;96.36
55590;BME280;41452;42.780;23.116;2023-04-03T08:10:52;93680.75;;;8.30;95.81
55590;BME280;41452;42.780;23.116;2023-04-03T08:13:19;93689.72;;;8.34;93.42
55590;BME280;41452;42.780;23.116;2023-04-03T08:15:44;93697.56;;;8.46;94.97
55590;BME280;41452;42.780;23.116;2023-04-03T08:18:10;93696.75;;;8.45;95.86
55590;BME280;41452;42.780;23.116;2023-04-03T08:20:37;93694.59;;;8.30;95.34
55590;BME280;41452;42.780;23.116;2023-04-03T08:23:03;93692.19;;;8.41;94.57
55590;BME280;41452;42.780;23.116;2023-04-03T08:25:28;93693.44;;;8.50;95.71
55590;BME280;41452;42.780;23.116;2023-04-03T08:27:55;93688.66;;;8.47;91.50
55590;BME280;41452;42.780;23.116;2023-04-03T08:30:20;93685.41;;;8.68;92.13
55590;BME280;41452;42.780;23.116;2023-04-03T08:32:45;93670.53;;;8.57;91.86
55590;BME280;41452;42.780;23.116;2023-04-03T08:35:11;93669.44;;;8.41;91.72
55590;BME280;41452;42.780;23.116;2023-04-03T08:37:37;93686.06;;;8.47;89.35
55590;BME280;41452;42.780;23.116;2023-04-03T08:40:05;93681.63;;;8.35;89.68
55590;BME280;41452;42.780;23.116;2023-04-03T08:45:16;93658.16;;;8.52;90.28
55590;BME280;41452;42.780;23.116;2023-04-03T08:47:52;93692.59;;;8.61;91.14
55590;BME280;41452;42.780;23.116;2023-04-03T08:50:31;93684.16;;;8.88;87.08
55590;BME280;41452;42.780;23.116;2023-04-03T08:52:59;93686.09;;;8.92;86.92
55590;BME280;41452;42.780;23.116;2023-04-03T08:55:29;93661.34;;;8.83;85.75
55590;BME280;41452;42.780;23.116;2023-04-03T08:58:28;93655.28;;;8.83;86.41
55590;BME280;41452;42.780;23.116;2023-04-03T09:01:13;93661.09;;;8.85;86.01
55590;BME280;41452;42.780;23.116;2023-04-03T09:03:40;93669.66;;;8.97;84.41
55590;BME280;41452;42.780;23.116;2023-04-03T09:06:23;93672.91;;;8.87;85.56
55590;BME280;41452;42.780;23.116;2023-04-03T09:09:15;93666.56;;;8.83;85.58
55590;BME280;41452;42.780;23.116;2023-04-03T09:14:35;93670.16;;;9.11;83.36
55590;BME280;41452;42.780;23.116;2023-04-03T09:22:43;93656.28;;;9.10;80.06
55590;BME280;41452;42.780;23.116;2023-04-03T09:25:20;93660.09;;;9.20;80.24
55590;BME280;41452;42.780;23.116;2023-04-03T09:27:46;93656.75;;;9.24;80.82
55590;BME280;41452;42.780;23.116;2023-04-03T09:30:22;93648.47;;;9.32;80.99
55590;BME280;41452;42.780;23.116;2023-04-03T09:32:51;93653.88;;;9.43;81.68
55590;BME280;41452;42.780;23.116;2023-04-03T09:37:45;93647.50;;;9.56;83.24
55590;BME280;41452;42.780;23.116;2023-04-03T09:40:28;93641.25;;;9.57;80.70
55590;BME280;41452;42.780;23.116;2023-04-03T09:42:59;93640.34;;;9.68;80.39
55590;BME280;41452;42.780;23.116;2023-04-03T09:45:34;93639.25;;;9.64;80.74
55590;BME280;41452;42.780;23.116;2023-04-03T09:50:32;93629.75;;;9.58;81.66
55590;BME280;41452;42.780;23.116;2023-04-03T09:53:05;93609.25;;;9.55;80.26
55590;BME280;41452;42.780;23.116;2023-04-03T09:55:31;93623.91;;;9.56;80.37
55590;BME280;41452;42.780;23.116;2023-04-03T09:58:02;93621.41;;;9.44;81.83
55590;BME280;41452;42.780;23.116;2023-04-03T10:00:33;93617.75;;;9.45;81.20
55590;BME280;41452;42.780;23.116;2023-04-03T10:02:59;93610.41;;;9.64;79.68
55590;BME280;41452;42.780;23.116;2023-04-03T10:05:41;93607.06;;;9.68;80.66
55590;BME280;41452;42.780;23.116;2023-04-03T10:10:48;93580.56;;;9.48;83.09
55590;BME280;41452;42.780;23.116;2023-04-03T10:13:23;93604.31;;;9.80;81.99
55590;BME280;41452;42.780;23.116;2023-04-03T10:15:56;93599.63;;;9.82;82.88
55590;BME280;41452;42.780;23.116;2023-04-03T10:18:32;93602.31;;;9.87;81.71
55590;BME280;41452;42.780;23.116;2023-04-03T10:24:08;93597.06;;;9.87;81.54
55590;BME280;41452;42.780;23.116;2023-04-03T10:27:13;93594.63;;;10.03;79.43
55590;BME280;41452;42.780;23.116;2023-04-03T10:30:02;93591.84;;;10.09;80.31
55590;BME280;41452;42.780;23.116;2023-04-03T10:37:55;93572.28;;;10.22;81.47
55590;BME280;41452;42.780;23.116;2023-04-03T10:40:50;93578.22;;;10.35;79.67
55590;BME280;41452;42.780;23.116;2023-04-03T10:54:25;93555.47;;;10.18;80.77
55590;BME280;41452;42.780;23.116;2023-04-03T10:57:06;93561.44;;;10.36;78.63
55590;BME280;41452;42.780;23.116;2023-04-03T11:05:08;93546.88;;;10.50;76.77
55590;BME280;41452;42.780;23.116;2023-04-03T11:07:45;93553.22;;;10.54;77.49
55590;BME280;41452;42.780;23.116;2023-04-03T11:10:17;93532.44;;;10.53;75.84
55590;BME280;41452;42.780;23.116;2023-04-03T11:13:02;93534.59;;;10.56;75.28
55590;BME280;41452;42.780;23.116;2023-04-03T11:15:32;93560.72;;;10.73;76.43
55590;BME280;41452;42.780;23.116;2023-04-03T11:18:06;93543.88;;;10.69;74.82
55590;BME280;41452;42.780;23.116;2023-04-03T11:20:35;93536.34;;;10.77;75.14
55590;BME280;41452;42.780;23.116;2023-04-03T11:23:18;93553.97;;;10.82;75.73
55590;BME280;41452;42.780;23.116;2023-04-03T11:25:50;93551.06;;;10.83;74.44
55590;BME280;41452;42.780;23.116;2023-04-03T11:28:18;93544.78;;;10.84;74.46
55590;BME280;41452;42.780;23.116;2023-04-03T11:30:51;93540.56;;;10.83;75.99
55590;BME280;41452;42.780;23.116;2023-04-03T11:36:12;93525.00;;;10.72;74.97
55590;BME280;41452;42.780;23.116;2023-04-03T11:38:44;93547.91;;;10.81;77.49
55590;BME280;41452;42.780;23.116;2023-04-03T11:41:11;93542.56;;;10.71;77.58
55590;BME280;41452;42.780;23.116;2023-04-03T11:43:43;93541.25;;;10.69;77.80
55590;BME280;41452;42.780;23.116;2023-04-03T11:46:20;93541.16;;;10.58;79.10
55590;BME280;41452;42.780;23.116;2023-04-03T11:48:48;93555.28;;;10.52;82.35
55590;BME280;41452;42.780;23.116;2023-04-03T11:53:43;93551.06;;;10.24;84.98
55590;BME280;41452;42.780;23.116;2023-04-03T12:01:47;93569.69;;;9.78;90.02
55590;BME280;41452;42.780;23.116;2023-04-03T12:04:14;93566.31;;;9.61;91.86
55590;BME280;41452;42.780;23.116;2023-04-03T12:09:26;93557.50;;;9.28;95.18
55590;BME280;41452;42.780;23.116;2023-04-03T12:11:53;93545.47;;;9.10;97.80
55590;BME280;41452;42.780;23.116;2023-04-03T12:14:22;93567.38;;;9.21;99.22
55590;BME280;41452;42.780;23.116;2023-04-03T12:16:50;93566.97;;;9.12;98.50
55590;BME280;41452;42.780;23.116;2023-04-03T12:32:09;93539.09;;;9.06;100.00
55590;BME280;41452;42.780;23.116;2023-04-03T12:40:23;93534.94;;;8.88;100.00
55590;BME280;41452;42.780;23.116;2023-04-03T12:43:48;93531.75;;;8.86;100.00
55590;BME280;41452;42.780;23.116;2023-04-03T12:45:58;93517.25;;;8.61;100.00
55590;BME280;41452;42.780;23.116;2023-04-03T12:48:28;93503.94;;;8.46;100.00
55590;BME280;41452;42.780;23.116;2023-04-03T12:50:55;93518.28;;;8.60;100.00
55590;BME280;41452;42.780;23.116;2023-04-03T12:53:27;93516.91;;;8.57;100.00
55590;BME280;41452;42.780;23.116;2023-04-03T12:55:56;93512.88;;;8.50;100.00
55590;BME280;41452;42.780;23.116;2023-04-03T12:58:24;93515.28;;;8.40;100.00
55590;BME280;41452;42.780;23.116;2023-04-03T13:01:10;93520.44;;;8.34;100.00
55590;BME280;41452;42.780;23.116;2023-04-03T13:03:37;93515.13;;;8.29;100.00
55590;BME280;41452;42.780;23.116;2023-04-03T13:06:04;93521.91;;;8.13;100.00
55590;BME280;41452;42.780;23.116;2023-04-03T13:08:31;93515.00;;;8.07;100.00
55590;BME280;41452;42.780;23.116;2023-04-03T13:11:06;93491.34;;;7.85;100.00
55590;BME280;41452;42.780;23.116;2023-04-03T13:13:35;93527.22;;;8.02;100.00
55590;BME280;41452;42.780;23.116;2023-04-03T13:16:10;93515.59;;;7.97;100.00
55590;BME280;41452;42.780;23.116;2023-04-03T13:18:37;93518.94;;;7.93;100.00
55590;BME280;41452;42.780;23.116;2023-04-03T13:21:24;93525.31;;;7.85;100.00
55590;BME280;41452;42.780;23.116;2023-04-03T13:23:53;93507.41;;;7.77;100.00
55590;BME280;41452;42.780;23.116;2023-04-03T13:26:22;93515.81;;;7.79;100.00
55590;BME280;41452;42.780;23.116;2023-04-03T13:28:49;93509.38;;;7.70;100.00
55590;BME280;41452;42.780;23.116;2023-04-03T13:31:19;93508.81;;;7.68;100.00
55590;BME280;41452;42.780;23.116;2023-04-03T13:34:13;93510.28;;;7.64;100.00
55590;BME280;41452;42.780;23.116;2023-04-03T13:36:42;93461.56;;;7.29;100.00
55590;BME280;41452;42.780;23.116;2023-04-03T13:41:52;93507.50;;;7.53;100.00
55590;BME280;41452;42.780;23.116;2023-04-03T13:46:46;93490.50;;;7.15;100.00
55590;BME280;41452;42.780;23.116;2023-04-03T13:49:22;93501.75;;;7.28;100.00
55590;BME280;41452;42.780;23.116;2023-04-03T13:51:48;93488.94;;;7.14;100.00
55590;BME280;41452;42.780;23.116;2023-04-03T13:54:23;93510.50;;;7.21;100.00
55590;BME280;41452;42.780;23.116;2023-04-03T13:56:58;93504.94;;;7.06;100.00
55590;BME280;41452;42.780;23.116;2023-04-03T13:59:28;93479.31;;;6.91;100.00
55590;BME280;41452;42.780;23.116;2023-04-03T14:04:55;93504.72;;;6.96;100.00
55590;BME280;41452;42.780;23.116;2023-04-03T14:07:25;93494.16;;;6.91;100.00
55590;BME280;41452;42.780;23.116;2023-04-03T14:09:51;93483.28;;;6.94;100.00
55590;BME280;41452;42.780;23.116;2023-04-03T14:12:27;93481.34;;;6.89;100.00
55590;BME280;41452;42.780;23.116;2023-04-03T14:14:53;93462.06;;;6.78;100.00
55590;BME280;41452;42.780;23.116;2023-04-03T14:17:22;93479.66;;;6.95;100.00
55590;BME280;41452;42.780;23.116;2023-04-03T14:19:50;93434.06;;;6.62;100.00
55590;BME280;41452;42.780;23.116;2023-04-03T14:22:22;93478.63;;;6.96;100.00
55590;BME280;41452;42.780;23.116;2023-04-03T14:24:48;93475.34;;;6.89;100.00
55590;BME280;41452;42.780;23.116;2023-04-03T14:27:22;93464.91;;;6.89;100.00
55590;BME280;41452;42.780;23.116;2023-04-03T14:29:50;93466.72;;;6.88;100.00